Dane, Wisconsin
Current Conditions -  °F | °C
As of 5:10 AM on Sunday 21 Dec 2014 (Local Time) from KC29 Reporting Station
Overcast Overcast  
Wind Chill: 27°   Ceiling: 400
Heat Index: 33°   Visibility: 3mi
Dew Point: 32°   Wind: 6mph
Humidity: 96%   Direction: 170°S
Pressure: 30.13"   Gusts: NA
Location:  43.25°N, 89.5°W
Report Text: KC29 211110Z AUTO 17005KT 3SM OVC004 01/00 A3013 RMK AO1 T00050000
Loading
Personal Weather Stations






























Interactive Weather Map New forecast layout! Learn more

10-Day Weather Forecast

Advertisements
Track Severe Weather on mobile